virtualACA

Welcome To Vancouver International Airport CYVR

Hub Roster

Pilot Domicile Rank
Brian Kozushka - ACA1102CanadaChief Pilot
Jean-Michel Lazare - ACA2310FranceChief Pilot
Chris Woolbright - ACA3136United StatesSecond Officer
Celso Silva - ACA3173BrazilSenior Officer
Marcel De Boer - ACA3175NetherlandsSecond Officer
Jardel Lopes - ACA3179BrazilFirst Officer

Current Vatsim Weather


CYVR 190500Z 00000KT 20SM MIFG SCT250 07/07 A3021 RMK CI3 SLP231
Vancouver International Airport